Terminal Aerodrome Forecast
Issued by NWS

Home | Current Version | Previous Version | Text Only | Print | Product List | Glossary On
Versions: 1 2 3 4 5 6 7 8 9 10 11 12 13 14 15
000
FTAK31 PAFA 131735 CCA
TAFAOM
TAF COR
PAOM 131735Z 1318/1418 09014KT P6SM BKN006 OVC010
      TEMPO 1318/1321 -FZRASN
     FM132100 07010KT 1 1/2SM -SN BR OVC007
     FM140300 18005KT 3SM -SN OVC015=

USA.gov is the U.S. government's official web portal to all federal, state and local government web resources and services.